createdAt,value
2023-01-13T00:03:22.429Z,7.30
2023-01-13T00:25:07.112Z,7.10
2023-01-13T00:46:50.762Z,7.80
2023-01-13T01:08:35.728Z,9.20
2023-01-13T01:30:19.807Z,7.40
2023-01-13T01:52:08.234Z,8.50
2023-01-13T02:13:51.361Z,8.30
2023-01-13T02:35:40.190Z,7.00
2023-01-13T02:57:26.313Z,6.30
2023-01-13T03:19:20.073Z,8.10
2023-01-13T03:41:07.601Z,6.50
2023-01-13T04:02:55.960Z,5.50
2023-01-13T04:24:39.344Z,8.70
2023-01-13T04:46:22.919Z,9.00
2023-01-13T05:08:06.636Z,8.70
2023-01-13T05:29:50.395Z,7.50
2023-01-13T05:51:33.915Z,6.20
2023-01-13T06:13:16.974Z,5.30
2023-01-13T06:35:09.713Z,5.90
2023-01-13T06:56:52.746Z,7.00
2023-01-13T07:18:37.792Z,8.40
2023-01-13T07:40:20.991Z,9.50
2023-01-13T08:02:04.582Z,8.90
2023-01-13T08:23:47.922Z,6.60
2023-01-13T08:45:31.524Z,5.70
2023-01-13T09:07:15.251Z,5.90
2023-01-13T09:28:58.346Z,7.80
2023-01-13T09:50:54.128Z,9.30
2023-01-13T10:12:55.171Z,9.40
2023-01-13T10:34:48.546Z,9.80
2023-01-13T10:56:34.108Z,9.00
2023-01-13T11:18:24.414Z,9.40
2023-01-13T11:40:16.457Z,8.30
2023-01-13T12:02:14.375Z,7.50
2023-01-13T12:24:08.807Z,9.40
2023-01-13T12:45:52.076Z,7.80
2023-01-13T13:07:42.313Z,7.70
2023-01-13T13:29:50.041Z,7.20
2023-01-13T13:51:40.298Z,8.30
2023-01-13T14:13:25.370Z,9.30
2023-01-13T14:35:15.412Z,13.00
2023-01-13T14:57:14.301Z,8.80
2023-01-13T15:18:58.679Z,8.60
2023-01-13T16:02:24.865Z,14.40
2023-01-13T16:24:08.261Z,15.20
2023-01-13T16:45:51.599Z,20.30
2023-01-13T17:07:35.233Z,20.00
2023-01-13T17:29:24.499Z,20.10
2023-01-13T17:51:12.575Z,15.70
2023-01-13T18:12:55.768Z,15.60
2023-01-13T18:34:39.665Z,15.40
2023-01-13T18:56:22.881Z,18.60
2023-01-13T19:18:07.106Z,19.80
2023-01-13T19:39:51.035Z,24.10
2023-01-13T20:01:37.420Z,25.70
2023-01-13T20:23:20.603Z,24.00
2023-01-13T20:45:05.140Z,16.30
2023-01-13T21:06:49.122Z,13.50
2023-01-13T21:28:33.910Z,13.50
2023-01-13T21:50:19.105Z,11.70
2023-01-13T22:12:02.167Z,15.30
2023-01-13T22:33:46.490Z,14.00
2023-01-13T22:55:31.815Z,11.60
2023-01-13T23:17:15.204Z,11.40
2023-01-13T23:38:59.660Z,11.00
